createdAt,value
2019-06-26T00:00:32.046Z,88.23
2019-06-26T00:03:00.595Z,88.71
2019-06-26T00:05:29.024Z,89.21
2019-06-26T00:07:57.237Z,88.67
2019-06-26T00:10:25.834Z,88.55
2019-06-26T00:12:54.411Z,88.66
2019-06-26T00:15:22.592Z,88.61
2019-06-26T00:17:51.105Z,88.70
2019-06-26T00:20:19.408Z,88.79
2019-06-26T00:22:47.945Z,89.22
2019-06-26T00:25:16.280Z,89.63
2019-06-26T00:27:44.534Z,89.57
2019-06-26T00:30:12.319Z,89.38
2019-06-26T00:32:40.793Z,89.22
2019-06-26T00:35:09.039Z,88.87
2019-06-26T00:37:37.345Z,89.15
2019-06-26T00:40:06.935Z,89.29
2019-06-26T00:42:34.422Z,89.79
2019-06-26T00:45:02.797Z,90.31
2019-06-26T00:47:30.718Z,89.68
2019-06-26T00:49:58.947Z,89.00
2019-06-26T00:52:27.137Z,89.11
2019-06-26T00:54:55.676Z,88.42
2019-06-26T00:57:24.727Z,87.69
2019-06-26T00:59:53.011Z,87.79
2019-06-26T01:02:21.175Z,88.46
2019-06-26T01:04:50.959Z,88.43
2019-06-26T01:07:19.528Z,88.89
2019-06-26T01:09:48.269Z,88.55
2019-06-26T01:12:16.242Z,88.36
2019-06-26T01:14:44.850Z,87.79
2019-06-26T01:17:13.451Z,87.79
2019-06-26T01:19:41.639Z,88.81
2019-06-26T01:22:09.906Z,88.81
2019-06-26T01:24:38.176Z,89.05
2019-06-26T01:27:06.455Z,89.48
2019-06-26T01:29:34.844Z,89.38
2019-06-26T01:32:03.450Z,89.38
2019-06-26T01:34:31.757Z,89.59
2019-06-26T01:37:00.220Z,90.24
2019-06-26T01:39:28.485Z,90.39
2019-06-26T01:41:56.768Z,90.88
2019-06-26T01:44:25.483Z,90.82
2019-06-26T01:46:53.740Z,90.62
2019-06-26T01:49:22.201Z,90.90
2019-06-26T01:51:50.804Z,91.22
2019-06-26T01:54:18.998Z,91.58
2019-06-26T01:56:46.863Z,91.73
2019-06-26T01:59:15.165Z,91.92
2019-06-26T02:01:43.403Z,92.03
2019-06-26T02:04:11.219Z,92.23
2019-06-26T02:06:39.385Z,92.91
2019-06-26T02:09:07.671Z,92.91
2019-06-26T02:11:35.913Z,92.88
2019-06-26T02:14:03.419Z,93.00
2019-06-26T02:16:31.284Z,93.00
2019-06-26T02:19:01.532Z,92.94
2019-06-26T02:21:29.663Z,93.05
2019-06-26T02:23:57.707Z,93.02
2019-06-26T02:26:26.056Z,93.05
2019-06-26T02:28:54.646Z,93.01
2019-06-26T02:31:23.229Z,93.33
2019-06-26T02:33:51.758Z,93.51
2019-06-26T02:36:20.400Z,93.67
2019-06-26T02:38:48.997Z,93.56
2019-06-26T02:41:17.486Z,93.56
2019-06-26T02:43:46.030Z,93.39
2019-06-26T02:46:14.046Z,93.26
2019-06-26T02:48:42.646Z,93.21
2019-06-26T02:51:11.161Z,92.65
2019-06-26T02:53:39.295Z,92.65
2019-06-26T02:56:06.810Z,91.73
2019-06-26T02:58:35.458Z,91.38
2019-06-26T03:01:03.959Z,91.38
2019-06-26T03:03:32.473Z,91.37
2019-06-26T03:06:01.043Z,91.37
2019-06-26T03:08:29.403Z,90.91
2019-06-26T03:10:57.594Z,90.17
2019-06-26T03:13:25.868Z,89.79
2019-06-26T03:15:54.145Z,90.01
2019-06-26T03:18:22.645Z,90.38
2019-06-26T03:20:53.699Z,90.28
2019-06-26T03:23:21.956Z,90.31
2019-06-26T03:25:50.140Z,90.56
2019-06-26T03:28:18.719Z,90.61
2019-06-26T03:30:46.719Z,90.27
2019-06-26T03:33:14.513Z,89.86
2019-06-26T03:35:43.160Z,89.84
2019-06-26T03:38:11.041Z,89.99
2019-06-26T03:40:38.911Z,89.99
2019-06-26T03:43:07.496Z,90.25
2019-06-26T03:45:36.055Z,90.78
2019-06-26T03:48:04.590Z,91.23
2019-06-26T03:50:32.886Z,90.91
2019-06-26T03:53:01.447Z,90.62
2019-06-26T03:55:29.634Z,90.47
2019-06-26T03:57:57.909Z,90.51
2019-06-26T04:00:39.815Z,90.81
2019-06-26T04:03:08.495Z,91.00
2019-06-26T04:05:36.378Z,91.24
2019-06-26T04:08:04.958Z,91.34
2019-06-26T04:10:33.271Z,91.39
2019-06-26T04:13:01.467Z,91.66
2019-06-26T04:15:41.358Z,91.49
2019-06-26T04:17:59.644Z,91.74
2019-06-26T04:20:27.888Z,92.11
2019-06-26T04:22:56.115Z,92.39
2019-06-26T04:25:24.779Z,92.45
2019-06-26T04:27:53.313Z,92.10
2019-06-26T04:30:22.312Z,91.85
2019-06-26T04:32:50.624Z,91.13
2019-06-26T04:35:18.702Z,90.18
2019-06-26T04:37:46.613Z,89.44
2019-06-26T04:40:15.080Z,89.44
2019-06-26T04:42:43.615Z,89.48
2019-06-26T04:45:12.381Z,89.50
2019-06-26T04:47:40.652Z,89.66
2019-06-26T04:50:09.257Z,89.69
2019-06-26T04:52:37.502Z,89.37
2019-06-26T04:55:06.151Z,89.77
2019-06-26T04:57:34.794Z,89.82
2019-06-26T05:00:03.732Z,89.82
2019-06-26T05:02:32.230Z,90.47
2019-06-26T05:05:00.456Z,90.66
2019-06-26T05:07:28.715Z,90.25
2019-06-26T05:09:56.921Z,89.14
2019-06-26T05:12:25.265Z,89.25
2019-06-26T05:14:53.508Z,89.46
2019-06-26T05:17:21.444Z,89.24
2019-06-26T05:19:49.596Z,88.87
2019-06-26T05:22:17.827Z,88.68
2019-06-26T05:24:46.591Z,88.68
2019-06-26T05:27:14.274Z,89.29
2019-06-26T05:29:42.990Z,88.72
2019-06-26T05:32:10.893Z,89.05
2019-06-26T05:34:39.491Z,88.85
2019-06-26T05:37:07.821Z,88.26
2019-06-26T05:39:36.002Z,88.46
2019-06-26T05:42:06.646Z,88.45
2019-06-26T05:44:34.778Z,88.27
2019-06-26T05:47:03.005Z,88.09
2019-06-26T05:49:31.329Z,88.05
2019-06-26T05:52:02.106Z,88.04
2019-06-26T05:54:29.444Z,88.02
2019-06-26T05:56:57.342Z,87.93
2019-06-26T05:59:25.614Z,87.79
2019-06-26T06:01:53.809Z,87.26
2019-06-26T06:04:22.118Z,87.05
2019-06-26T06:06:50.494Z,87.05
2019-06-26T06:09:19.070Z,86.79
2019-06-26T06:11:46.875Z,86.51
2019-06-26T06:14:15.426Z,85.38
2019-06-26T06:16:47.776Z,84.97
2019-06-26T06:19:14.140Z,83.70
2019-06-26T06:21:42.320Z,82.45
2019-06-26T06:24:10.553Z,82.01
2019-06-26T06:26:38.687Z,81.71
2019-06-26T06:29:06.553Z,80.94
2019-06-26T06:31:35.141Z,81.63
2019-06-26T06:34:03.522Z,81.83
2019-06-26T06:36:32.026Z,81.30
2019-06-26T06:39:00.550Z,80.79
2019-06-26T06:41:29.190Z,81.05
2019-06-26T06:43:57.379Z,81.12
2019-06-26T06:46:25.720Z,79.68
2019-06-26T06:48:54.360Z,78.45
2019-06-26T06:51:22.974Z,77.51
2019-06-26T06:53:51.229Z,78.08
2019-06-26T06:56:19.391Z,78.26
2019-06-26T06:58:47.978Z,76.87
2019-06-26T07:01:16.155Z,77.52
2019-06-26T07:03:44.344Z,76.27
2019-06-26T07:06:12.535Z,76.13
2019-06-26T07:08:40.736Z,75.94
2019-06-26T07:11:08.995Z,76.46
2019-06-26T07:13:36.902Z,76.80
2019-06-26T07:16:04.731Z,78.18
2019-06-26T07:18:33.355Z,78.75
2019-06-26T07:21:01.743Z,76.35
2019-06-26T07:23:30.032Z,76.47
2019-06-26T07:25:58.500Z,75.50
2019-06-26T07:28:27.058Z,75.30
2019-06-26T07:30:54.955Z,74.49
2019-06-26T07:33:22.816Z,74.69
2019-06-26T07:35:50.676Z,73.78
2019-06-26T07:38:18.870Z,74.57
2019-06-26T07:40:47.141Z,73.90
2019-06-26T07:43:16.512Z,73.13
2019-06-26T07:45:45.136Z,72.14
2019-06-26T07:48:13.015Z,72.55
2019-06-26T07:50:41.485Z,71.24
2019-06-26T07:53:09.277Z,70.22
2019-06-26T07:55:40.453Z,70.96
2019-06-26T07:58:07.679Z,68.78
2019-06-26T08:00:35.964Z,70.04
2019-06-26T08:03:04.650Z,68.63
2019-06-26T08:05:34.194Z,69.29
2019-06-26T08:08:02.755Z,69.43
2019-06-26T08:10:32.375Z,66.36
2019-06-26T08:13:00.308Z,68.23
2019-06-26T08:15:29.233Z,65.87
2019-06-26T08:18:00.933Z,67.81
2019-06-26T08:20:27.636Z,66.49
2019-06-26T08:22:55.927Z,67.82
2019-06-26T08:25:24.614Z,66.96
2019-06-26T08:27:53.245Z,66.83
2019-06-26T08:30:21.815Z,68.22
2019-06-26T08:32:49.467Z,67.65
2019-06-26T08:35:18.060Z,66.37
2019-06-26T08:37:47.732Z,66.94
2019-06-26T08:40:17.490Z,65.54
2019-06-26T08:42:45.659Z,66.40
2019-06-26T08:45:14.256Z,63.97
2019-06-26T08:47:42.638Z,62.85
2019-06-26T08:50:10.810Z,62.60
2019-06-26T08:52:38.340Z,63.90
2019-06-26T08:55:06.553Z,63.08
2019-06-26T08:57:35.197Z,61.38
2019-06-26T09:00:04.062Z,61.42
2019-06-26T09:02:31.913Z,62.68
2019-06-26T09:05:00.553Z,62.78
2019-06-26T09:07:28.685Z,64.33
2019-06-26T09:09:56.865Z,61.16
2019-06-26T09:12:25.452Z,63.24
2019-06-26T09:14:53.722Z,62.75
2019-06-26T09:17:21.920Z,61.77
2019-06-26T09:19:50.459Z,61.82
2019-06-26T09:22:18.798Z,61.76
2019-06-26T09:24:47.313Z,62.50
2019-06-26T09:27:15.334Z,60.16
2019-06-26T09:29:42.995Z,62.43
2019-06-26T09:32:11.337Z,61.29
2019-06-26T09:34:39.296Z,61.45
2019-06-26T09:37:07.445Z,61.20
2019-06-26T09:39:35.331Z,63.33
2019-06-26T09:42:03.509Z,62.64
2019-06-26T09:44:31.383Z,59.88
2019-06-26T09:46:59.291Z,60.96
2019-06-26T09:49:27.473Z,61.83
2019-06-26T09:51:55.368Z,59.48
2019-06-26T09:54:23.657Z,60.60
2019-06-26T09:56:52.284Z,60.05
2019-06-26T09:59:20.910Z,59.20
2019-06-26T10:01:58.759Z,59.53
2019-06-26T10:04:26.898Z,57.18
2019-06-26T10:06:54.897Z,58.15
2019-06-26T10:09:22.797Z,58.47
2019-06-26T10:11:50.338Z,58.91
2019-06-26T10:14:18.596Z,57.10
2019-06-26T10:16:46.530Z,58.10
2019-06-26T10:19:15.226Z,56.42
2019-06-26T10:21:43.073Z,50.32
2019-06-26T10:24:10.634Z,53.19
2019-06-26T10:26:38.824Z,53.63
2019-06-26T10:29:06.696Z,52.16
2019-06-26T10:31:34.886Z,56.15
2019-06-26T10:34:03.071Z,56.00
2019-06-26T10:36:30.616Z,54.54
2019-06-26T10:38:58.832Z,54.39
2019-06-26T10:41:27.494Z,54.72
2019-06-26T10:43:55.794Z,53.48
2019-06-26T10:46:23.643Z,51.99
2019-06-26T10:48:51.532Z,52.59
2019-06-26T10:51:20.472Z,50.57
2019-06-26T10:53:48.411Z,51.80
2019-06-26T10:56:16.676Z,50.46
2019-06-26T10:58:44.862Z,49.96
2019-06-26T11:01:13.032Z,50.86
2019-06-26T11:03:40.910Z,48.15
2019-06-26T11:06:09.508Z,50.85
2019-06-26T11:08:37.776Z,49.55
2019-06-26T11:11:05.240Z,51.34
2019-06-26T11:13:33.226Z,49.35
2019-06-26T11:16:01.411Z,49.19
2019-06-26T11:18:29.691Z,50.32
2019-06-26T11:20:57.957Z,48.49
2019-06-26T11:23:26.551Z,51.34
2019-06-26T11:25:55.145Z,45.51
2019-06-26T11:28:23.531Z,49.39
2019-06-26T11:30:51.589Z,46.27
2019-06-26T11:33:20.200Z,44.37
2019-06-26T11:35:48.413Z,46.20
2019-06-26T11:38:16.662Z,45.21
2019-06-26T11:40:44.849Z,46.65
2019-06-26T11:43:13.129Z,45.91
2019-06-26T11:45:41.093Z,45.00
2019-06-26T11:48:09.648Z,46.24
2019-06-26T11:50:37.542Z,45.77
2019-06-26T11:53:05.738Z,45.02
2019-06-26T11:55:34.231Z,45.44
2019-06-26T11:58:02.850Z,45.13
2019-06-26T12:00:30.935Z,48.44
2019-06-26T12:02:59.642Z,46.81
2019-06-26T12:05:28.283Z,45.15
2019-06-26T12:07:56.582Z,48.03
2019-06-26T12:10:24.594Z,45.46
2019-06-26T12:12:52.130Z,45.29
2019-06-26T12:15:20.992Z,43.29
2019-06-26T12:17:49.587Z,42.63
2019-06-26T12:20:19.602Z,46.88
2019-06-26T12:22:47.581Z,44.41
2019-06-26T12:25:15.823Z,45.29
2019-06-26T12:27:43.686Z,47.24
2019-06-26T12:30:12.063Z,46.46
2019-06-26T12:32:42.733Z,48.63
2019-06-26T12:35:10.969Z,49.14
2019-06-26T12:37:38.815Z,46.46
2019-06-26T12:40:07.697Z,45.23
2019-06-26T12:42:35.969Z,43.78
2019-06-26T12:45:04.775Z,44.64
2019-06-26T12:47:32.950Z,41.51
2019-06-26T12:50:01.143Z,44.18
2019-06-26T12:52:29.325Z,44.46
2019-06-26T12:54:57.928Z,41.96
2019-06-26T12:57:26.187Z,36.60
2019-06-26T12:59:57.821Z,43.30
2019-06-26T13:02:23.851Z,42.65
2019-06-26T13:04:52.172Z,41.38
2019-06-26T13:07:20.752Z,42.69
2019-06-26T13:09:49.455Z,42.66
2019-06-26T13:12:16.650Z,44.54
2019-06-26T13:14:44.979Z,41.05
2019-06-26T13:17:13.511Z,41.35
2019-06-26T13:19:41.663Z,42.36
2019-06-26T13:22:10.340Z,41.56
2019-06-26T13:24:38.929Z,41.05
2019-06-26T13:27:06.818Z,38.61
2019-06-26T13:29:35.080Z,41.49
2019-06-26T13:32:09.406Z,35.96
2019-06-26T13:34:37.986Z,36.00
2019-06-26T13:37:07.505Z,34.67
2019-06-26T13:39:35.558Z,34.16
2019-06-26T13:42:04.156Z,31.26
2019-06-26T13:44:32.060Z,34.48
2019-06-26T13:47:00.375Z,34.24
2019-06-26T13:49:28.766Z,32.57
2019-06-26T13:51:57.088Z,34.39
2019-06-26T13:54:25.611Z,30.31
2019-06-26T13:56:53.875Z,30.12
2019-06-26T13:59:22.228Z,30.50
2019-06-26T14:01:50.830Z,30.02
2019-06-26T14:04:18.698Z,28.59
2019-06-26T14:06:47.006Z,25.09
2019-06-26T14:09:15.493Z,26.81
2019-06-26T14:11:43.364Z,28.32
2019-06-26T14:14:11.944Z,28.94
2019-06-26T14:16:40.559Z,27.93
2019-06-26T14:19:09.067Z,30.70
2019-06-26T14:21:37.180Z,28.55
2019-06-26T14:24:05.481Z,30.27
2019-06-26T14:26:33.842Z,28.75
2019-06-26T14:29:01.465Z,29.38
2019-06-26T14:31:29.818Z,29.41
2019-06-26T14:33:57.376Z,30.43
2019-06-26T14:36:25.553Z,28.70
2019-06-26T14:38:53.137Z,27.89
2019-06-26T14:41:21.401Z,28.21
2019-06-26T14:43:49.935Z,27.62
2019-06-26T14:46:18.181Z,28.70
2019-06-26T14:48:46.465Z,28.43
2019-06-26T14:51:14.647Z,27.95
2019-06-26T14:53:42.606Z,29.96
2019-06-26T14:56:11.299Z,28.08
2019-06-26T14:58:39.747Z,29.24
2019-06-26T15:01:08.299Z,29.20
2019-06-26T15:03:36.935Z,27.77
2019-06-26T15:06:15.803Z,28.48
2019-06-26T15:08:34.915Z,28.05
2019-06-26T15:11:03.692Z,29.54
2019-06-26T15:13:32.190Z,29.37
2019-06-26T15:15:59.761Z,30.34
2019-06-26T15:18:27.615Z,30.24
2019-06-26T15:20:56.162Z,30.71
2019-06-26T15:23:24.423Z,30.27
2019-06-26T15:25:52.631Z,32.26
2019-06-26T15:28:21.316Z,31.59
2019-06-26T15:30:49.916Z,32.49
2019-06-26T15:33:17.812Z,33.42
2019-06-26T15:35:46.413Z,33.88
2019-06-26T15:38:14.553Z,34.22
2019-06-26T15:40:42.827Z,35.49
2019-06-26T15:43:10.800Z,36.58
2019-06-26T15:45:38.379Z,37.36
2019-06-26T15:48:06.751Z,37.96
2019-06-26T15:50:35.407Z,39.75
2019-06-26T15:53:04.036Z,38.89
2019-06-26T15:55:31.986Z,39.81
2019-06-26T15:58:00.537Z,40.65
2019-06-26T16:00:29.092Z,41.76
2019-06-26T16:02:57.320Z,41.86
2019-06-26T16:05:25.632Z,42.21
2019-06-26T16:07:53.866Z,42.78
2019-06-26T16:10:22.937Z,43.97
2019-06-26T16:12:51.530Z,42.24
2019-06-26T16:15:20.056Z,43.58
2019-06-26T16:17:53.951Z,43.06
2019-06-26T16:20:22.206Z,43.62
2019-06-26T16:22:50.200Z,44.69
2019-06-26T16:25:18.851Z,44.50
2019-06-26T16:27:46.787Z,44.04
2019-06-26T16:30:15.229Z,44.67
2019-06-26T16:32:43.400Z,46.41
2019-06-26T16:35:12.493Z,45.05
2019-06-26T16:37:40.804Z,46.14
2019-06-26T16:40:09.380Z,46.16
2019-06-26T16:42:37.281Z,45.61
2019-06-26T16:45:05.386Z,46.92
2019-06-26T16:47:32.874Z,46.93
2019-06-26T16:50:01.171Z,48.06
2019-06-26T16:52:29.803Z,46.86
2019-06-26T16:54:58.377Z,47.68
2019-06-26T16:57:26.967Z,48.55
2019-06-26T17:00:09.030Z,48.76
2019-06-26T17:02:26.049Z,48.74
2019-06-26T17:04:54.297Z,49.41
2019-06-26T17:07:23.010Z,49.55
2019-06-26T17:09:51.753Z,49.96
2019-06-26T17:12:20.114Z,49.71
2019-06-26T17:14:48.318Z,49.98
2019-06-26T17:17:16.892Z,51.97
2019-06-26T17:19:45.377Z,52.73
2019-06-26T17:22:13.660Z,51.64
2019-06-26T17:24:41.534Z,51.87
2019-06-26T17:27:09.901Z,52.02
2019-06-26T17:29:38.122Z,52.22
2019-06-26T17:32:06.201Z,52.66
2019-06-26T17:34:34.347Z,53.30
2019-06-26T17:37:02.623Z,53.57
2019-06-26T17:39:30.524Z,53.05
2019-06-26T17:41:58.385Z,53.55
2019-06-26T17:44:26.967Z,54.48
2019-06-26T17:46:55.162Z,55.17
2019-06-26T17:49:23.008Z,54.56
2019-06-26T17:51:51.674Z,55.35
2019-06-26T17:54:20.280Z,56.23
2019-06-26T17:56:48.815Z,56.78
2019-06-26T17:59:17.076Z,57.13
2019-06-26T18:01:45.537Z,58.41
2019-06-26T18:04:13.751Z,58.12
2019-06-26T18:06:41.966Z,58.51
2019-06-26T18:09:12.315Z,60.18
2019-06-26T18:11:40.036Z,60.20
2019-06-26T18:14:07.998Z,60.50
2019-06-26T18:16:36.496Z,60.93
2019-06-26T18:19:04.852Z,61.18
2019-06-26T18:21:33.203Z,62.17
2019-06-26T18:24:01.128Z,62.80
2019-06-26T18:26:29.662Z,62.86
2019-06-26T18:28:57.982Z,63.54
2019-06-26T18:31:26.518Z,63.52
2019-06-26T18:33:54.431Z,64.12
2019-06-26T18:38:52.117Z,65.02
2019-06-26T18:41:20.730Z,65.12
2019-06-26T18:43:49.049Z,65.45
2019-06-26T18:46:16.835Z,66.92
2019-06-26T18:48:45.042Z,68.82
2019-06-26T18:51:13.021Z,69.69
2019-06-26T18:53:53.079Z,70.72
2019-06-26T18:56:10.695Z,71.47
2019-06-26T18:58:39.398Z,70.82
2019-06-26T19:01:07.319Z,71.45
2019-06-26T19:03:35.576Z,70.53
2019-06-26T19:06:03.494Z,71.23
2019-06-26T19:08:32.111Z,70.81
2019-06-26T19:11:04.488Z,71.64
2019-06-26T19:13:32.562Z,71.80
2019-06-26T19:16:04.223Z,72.43
2019-06-26T19:18:30.903Z,71.91
2019-06-26T19:20:58.378Z,71.54
2019-06-26T19:23:38.047Z,72.80
2019-06-26T19:26:07.131Z,72.66
2019-06-26T19:28:35.692Z,73.45
2019-06-26T19:31:03.919Z,75.06
2019-06-26T19:33:31.823Z,75.76
2019-06-26T19:36:00.401Z,76.36
2019-06-26T19:38:28.611Z,77.02
2019-06-26T19:40:57.175Z,77.36
2019-06-26T19:43:25.513Z,76.57
2019-06-26T19:45:54.352Z,75.58
2019-06-26T19:48:22.306Z,75.38
2019-06-26T19:50:50.947Z,75.39
2019-06-26T19:53:19.663Z,75.88
2019-06-26T19:55:48.334Z,75.80
2019-06-26T19:58:16.587Z,76.47
2019-06-26T20:00:44.561Z,76.79
2019-06-26T20:03:13.076Z,77.13
2019-06-26T20:05:41.781Z,76.97
2019-06-26T20:08:09.727Z,77.49
2019-06-26T20:10:37.592Z,77.13
2019-06-26T20:13:06.177Z,77.42
2019-06-26T20:15:34.322Z,76.67
2019-06-26T20:18:04.414Z,77.12
2019-06-26T20:20:33.053Z,77.49
2019-06-26T20:23:01.685Z,78.21
2019-06-26T20:25:30.067Z,78.73
2019-06-26T20:27:58.146Z,78.98
2019-06-26T20:30:30.568Z,79.05
2019-06-26T20:32:58.705Z,79.28
2019-06-26T20:35:27.234Z,79.29
2019-06-26T20:37:55.572Z,79.65
2019-06-26T20:40:23.771Z,80.20
2019-06-26T20:42:51.670Z,80.33
2019-06-26T20:45:20.420Z,80.43
2019-06-26T20:47:48.749Z,80.20
2019-06-26T20:50:17.409Z,80.59
2019-06-26T20:52:45.582Z,80.96
2019-06-26T20:55:13.748Z,81.11
2019-06-26T20:57:42.045Z,81.24
2019-06-26T21:00:10.824Z,82.10
2019-06-26T21:02:38.779Z,82.24
2019-06-26T21:05:07.702Z,82.47
2019-06-26T21:07:36.198Z,83.15
2019-06-26T21:10:04.829Z,83.19
2019-06-26T21:12:34.452Z,83.49
2019-06-26T21:15:05.285Z,83.88
2019-06-26T21:17:34.423Z,83.51
2019-06-26T21:20:03.877Z,83.68
2019-06-26T21:22:32.454Z,83.55
2019-06-26T21:25:16.962Z,83.97
2019-06-26T21:27:32.310Z,84.41
2019-06-26T21:30:02.066Z,84.24
2019-06-26T21:32:30.381Z,84.95
2019-06-26T21:34:58.238Z,85.07
2019-06-26T21:37:26.623Z,85.06
2019-06-26T21:39:54.140Z,85.45
2019-06-26T21:42:21.845Z,85.50
2019-06-26T21:44:50.547Z,85.61
2019-06-26T21:47:18.897Z,85.68
2019-06-26T21:49:47.340Z,85.53
2019-06-26T21:52:15.908Z,85.35
2019-06-26T21:54:43.697Z,84.93
2019-06-26T21:57:12.287Z,84.82
2019-06-26T21:59:40.502Z,84.79
2019-06-26T22:02:09.237Z,85.35
2019-06-26T22:04:37.426Z,85.79
2019-06-26T22:07:05.744Z,86.19
2019-06-26T22:09:34.095Z,86.41
2019-06-26T22:12:02.723Z,86.82
2019-06-26T22:14:31.384Z,86.98
2019-06-26T22:16:59.904Z,87.29
2019-06-26T22:19:37.242Z,87.66
2019-06-26T22:22:05.743Z,87.96
2019-06-26T22:24:34.018Z,88.04
2019-06-26T22:27:02.216Z,88.35
2019-06-26T22:29:30.881Z,88.54
2019-06-26T22:31:59.463Z,88.59
2019-06-26T22:34:27.723Z,89.06
2019-06-26T22:36:56.370Z,88.95
2019-06-26T22:39:24.524Z,88.76
2019-06-26T22:41:52.384Z,86.73
2019-06-26T22:44:20.643Z,86.57
2019-06-26T22:46:48.872Z,86.98
2019-06-26T22:49:17.436Z,87.33
2019-06-26T22:51:45.938Z,87.44
2019-06-26T22:54:14.262Z,87.74
2019-06-26T22:56:42.946Z,88.20
2019-06-26T22:59:11.096Z,88.58
2019-06-26T23:01:38.953Z,88.60
2019-06-26T23:04:06.908Z,88.19
2019-06-26T23:06:37.431Z,88.51
2019-06-26T23:09:05.858Z,88.73
2019-06-26T23:11:34.023Z,89.17
2019-06-26T23:14:02.269Z,88.96
2019-06-26T23:16:30.815Z,89.16
2019-06-26T23:18:59.072Z,89.05
2019-06-26T23:21:26.886Z,89.16
2019-06-26T23:23:55.217Z,88.84
2019-06-26T23:26:24.706Z,89.21
2019-06-26T23:28:53.236Z,89.50
2019-06-26T23:31:21.819Z,87.69
2019-06-26T23:33:50.016Z,86.38
2019-06-26T23:36:18.281Z,86.71
2019-06-26T23:38:46.506Z,86.47
2019-06-26T23:41:17.863Z,86.97
2019-06-26T23:43:44.488Z,87.45
2019-06-26T23:46:13.161Z,87.71
2019-06-26T23:48:45.556Z,88.34
2019-06-26T23:51:11.558Z,88.56
2019-06-26T23:53:39.846Z,88.39
2019-06-26T23:56:08.442Z,88.85
2019-06-26T23:58:36.617Z,88.86
